Time,TemperatureF,DewpointF,PressureIn,WindDirection,WindDirectionDegrees,WindSpeedMPH,WindSpeedGustMPH,Humidity,HourlyPrecipIn,Conditions,Clouds,dailyrainin,SoftwareType,DateUTC
2013-05-13 00:13:00,52.4,50.0,30.01,South,191,0.0,-999.0,91,-99.99,,,0.00,weatherlink.com 1.10,2013-05-13 07:13:00,
2013-05-13 00:28:00,52.1,50.0,30.01,South,191,0.0,-999.0,91,-99.99,,,0.00,weatherlink.com 1.10,2013-05-13 07:28:00,
2013-05-13 00:43:00,51.6,49.0,30.01,South,191,0.0,-999.0,92,-99.99,,,0.00,weatherlink.com 1.10,2013-05-13 07:43:00,
2013-05-13 00:58:00,51.2,49.0,30.01,South,191,0.0,-999.0,92,-99.99,,,0.00,weatherlink.com 1.10,2013-05-13 07:58:00,
2013-05-13 01:13:00,50.8,49.0,30.01,South,191,0.0,-999.0,92,-99.99,,,0.00,weatherlink.com 1.10,2013-05-13 08:13:00,
2013-05-13 01:28:00,50.4,48.0,30.01,South,191,0.0,-999.0,92,-99.99,,,0.00,weatherlink.com 1.10,2013-05-13 08:28:00,
2013-05-13 01:43:00,50.0,48.0,30.00,South,191,0.0,-999.0,93,-99.99,,,0.00,weatherlink.com 1.10,2013-05-13 08:43:00,
2013-05-13 01:58:00,49.6,47.0,30.00,South,191,0.0,-999.0,92,-99.99,,,0.00,weatherlink.com 1.10,2013-05-13 08:58:00,
2013-05-13 02:13:00,49.2,47.0,30.00,South,191,0.0,-999.0,93,-99.99,,,0.00,weatherlink.com 1.10,2013-05-13 09:13:00,
2013-05-13 02:28:00,48.9,47.0,30.00,South,191,0.0,-999.0,93,-99.99,,,0.00,weatherlink.com 1.10,2013-05-13 09:28:00,
2013-05-13 02:43:00,48.5,47.0,30.00,South,191,0.0,-999.0,93,-99.99,,,0.00,weatherlink.com 1.10,2013-05-13 09:43:00,
2013-05-13 02:58:00,48.1,46.0,30.00,South,191,0.0,-999.0,93,-99.99,,,0.00,weatherlink.com 1.10,2013-05-13 09:58:00,
2013-05-13 03:13:00,47.7,46.0,30.01,South,191,0.0,-999.0,93,-99.99,,,0.00,weatherlink.com 1.10,2013-05-13 10:13:00,
2013-05-13 03:28:00,47.4,46.0,30.01,South,191,0.0,-999.0,93,-99.99,,,0.00,weatherlink.com 1.10,2013-05-13 10:28:00,
2013-05-13 03:43:00,47.1,46.0,30.00,South,191,0.0,-999.0,94,-99.99,,,0.00,weatherlink.com 1.10,2013-05-13 10:43:00,
2013-05-13 03:58:00,47.0,45.0,30.00,South,191,0.0,-999.0,94,-99.99,,,0.00,weatherlink.com 1.10,2013-05-13 10:58:00,
2013-05-13 04:13:00,46.8,45.0,30.00,South,191,0.0,-999.0,94,-99.99,,,0.00,weatherlink.com 1.10,2013-05-13 11:13:00,
2013-05-13 04:29:00,46.6,45.0,30.01,South,191,0.0,-999.0,94,-99.99,,,0.00,weatherlink.com 1.10,2013-05-13 11:29:00,
2013-05-13 04:44:00,46.5,45.0,30.01,SSW,201,0.0,-999.0,95,-99.99,,,0.00,weatherlink.com 1.10,2013-05-13 11:44:00,
2013-05-13 04:59:00,46.3,45.0,30.01,SSW,201,0.0,-999.0,95,-99.99,,,0.00,weatherlink.com 1.10,2013-05-13 11:59:00,
2013-05-13 05:14:00,46.2,45.0,30.00,SSW,201,0.0,-999.0,95,-99.99,,,0.00,weatherlink.com 1.10,2013-05-13 12:14:00,
2013-05-13 05:29:00,46.2,45.0,30.01,SSW,201,0.0,-999.0,95,-99.99,,,0.00,weatherlink.com 1.10,2013-05-13 12:29:00,
2013-05-13 05:44:00,46.3,45.0,30.02,SSW,201,0.0,-999.0,95,-99.99,,,0.00,weatherlink.com 1.10,2013-05-13 12:44:00,
2013-05-13 05:59:00,46.3,45.0,30.02,SSW,201,0.0,-999.0,95,-99.99,,,0.00,weatherlink.com 1.10,2013-05-13 12:59:00,
2013-05-13 06:14:00,46.1,45.0,30.02,SSW,201,0.0,-999.0,95,-99.99,,,0.00,weatherlink.com 1.10,2013-05-13 13:14:00,
2013-05-13 06:29:00,46.0,45.0,30.03,SSW,201,0.0,-999.0,95,-99.99,,,0.00,weatherlink.com 1.10,2013-05-13 13:29:00,
2013-05-13 06:44:00,45.9,45.0,30.03,SSW,201,0.0,-999.0,95,-99.99,,,0.00,weatherlink.com 1.10,2013-05-13 13:44:00,
2013-05-13 06:59:00,45.9,45.0,30.03,SSW,201,0.0,-999.0,95,-99.99,,,0.00,weatherlink.com 1.10,2013-05-13 13:59:00,
2013-05-13 07:14:00,46.0,45.0,30.03,SSW,201,0.0,-999.0,96,-99.99,,,0.00,weatherlink.com 1.10,2013-05-13 14:14:00,
2013-05-13 07:29:00,46.3,45.0,30.04,SSW,201,0.0,-999.0,96,-99.99,,,0.00,weatherlink.com 1.10,2013-05-13 14:29:00,
2013-05-13 07:44:00,47.8,47.0,30.04,SSW,201,0.0,-999.0,97,-99.99,,,0.00,weatherlink.com 1.10,2013-05-13 14:44:00,
2013-05-13 07:59:00,49.4,49.0,30.04,SSW,201,0.0,-999.0,97,-99.99,,,0.00,weatherlink.com 1.10,2013-05-13 14:59:00,
2013-05-13 08:14:00,51.0,50.0,30.04,SSW,201,0.0,-999.0,97,-99.99,,,0.00,weatherlink.com 1.10,2013-05-13 15:14:00,
2013-05-13 08:29:00,53.0,52.0,30.04,SSW,201,0.0,-999.0,97,-99.99,,,0.00,weatherlink.com 1.10,2013-05-13 15:29:00,
2013-05-13 08:44:00,53.9,53.0,30.05,SSW,201,0.0,-999.0,97,-99.99,,,0.00,weatherlink.com 1.10,2013-05-13 15:44:00,
2013-05-13 08:59:00,55.7,55.0,30.05,South,173,1.0,-999.0,96,-99.99,,,0.00,weatherlink.com 1.10,2013-05-13 15:59:00,
2013-05-13 09:14:00,58.9,55.0,30.05,South,173,0.0,-999.0,88,-99.99,,,0.00,weatherlink.com 1.10,2013-05-13 16:14:00,
2013-05-13 09:29:00,62.1,56.0,30.05,SE,144,1.0,-999.0,80,-99.99,,,0.00,weatherlink.com 1.10,2013-05-13 16:29:00,
2013-05-13 09:44:00,64.3,56.0,30.05,SSE,158,1.0,-999.0,75,-99.99,,,0.00,weatherlink.com 1.10,2013-05-13 16:44:00,
2013-05-13 09:59:00,66.5,56.0,30.05,SSE,159,0.0,-999.0,70,-99.99,,,0.00,weatherlink.com 1.10,2013-05-13 16:59:00,
2013-05-13 10:14:00,68.6,57.0,30.05,South,169,2.0,-999.0,66,-99.99,,,0.00,weatherlink.com 1.10,2013-05-13 17:14:00,
2013-05-13 10:29:00,69.5,57.0,30.05,South,184,0.0,-999.0,64,-99.99,,,0.00,weatherlink.com 1.10,2013-05-13 17:29:00,
2013-05-13 10:44:00,71.7,57.0,30.05,SE,142,3.0,-999.0,61,-99.99,,,0.00,weatherlink.com 1.10,2013-05-13 17:44:00,
2013-05-13 10:59:00,72.7,58.0,30.05,SSW,199,1.0,-999.0,61,-99.99,,,0.00,weatherlink.com 1.10,2013-05-13 17:59:00,
2013-05-13 11:14:00,72.8,58.0,30.05,South,175,0.0,-999.0,61,-99.99,,,0.00,weatherlink.com 1.10,2013-05-13 18:14:00,
2013-05-13 11:29:00,72.5,58.0,30.05,SE,140,0.0,-999.0,60,-99.99,,,0.00,weatherlink.com 1.10,2013-05-13 18:29:00,
2013-05-13 11:45:00,73.6,59.0,30.05,NNW,346,0.0,-999.0,60,-99.99,,,0.00,weatherlink.com 1.10,2013-05-13 18:45:00,
2013-05-13 12:00:00,74.7,59.0,30.05,SSE,162,0.0,-999.0,58,-99.99,,,0.00,weatherlink.com 1.10,2013-05-13 19:00:00,
2013-05-13 12:15:00,75.2,58.0,30.04,NNE,13,0.0,-999.0,56,-99.99,,,0.00,weatherlink.com 1.10,2013-05-13 19:15:00,
2013-05-13 12:30:00,76.3,60.0,30.04,ENE,57,0.0,-999.0,57,-99.99,,,0.00,weatherlink.com 1.10,2013-05-13 19:30:00,
2013-05-13 13:00:00,77.3,60.0,30.03,East,84,0.0,-999.0,55,-99.99,,,0.00,weatherlink.com 1.10,2013-05-13 20:00:00,
2013-05-13 13:15:00,77.1,61.0,30.02,South,171,0.0,-999.0,57,-99.99,,,0.00,weatherlink.com 1.10,2013-05-13 20:15:00,
2013-05-13 13:30:00,77.4,61.0,30.02,East,82,2.0,-999.0,57,-99.99,,,0.00,weatherlink.com 1.10,2013-05-13 20:30:00,
2013-05-13 13:45:00,78.8,61.0,30.01,NNW,341,2.0,-999.0,54,-99.99,,,0.00,weatherlink.com 1.10,2013-05-13 20:45:00,
2013-05-13 14:00:00,79.6,60.0,30.01,East,80,1.0,-999.0,52,-99.99,,,0.00,weatherlink.com 1.10,2013-05-13 21:00:00,
2013-05-13 14:15:00,80.2,61.0,30.00,South,184,3.0,-999.0,53,-99.99,,,0.00,weatherlink.com 1.10,2013-05-13 21:15:00,
2013-05-13 14:30:00,80.9,61.0,30.00,ENE,59,0.0,-999.0,51,-99.99,,,0.00,weatherlink.com 1.10,2013-05-13 21:30:00,
2013-05-13 14:45:00,81.6,61.0,30.00,NW,307,1.0,-999.0,50,-99.99,,,0.00,weatherlink.com 1.10,2013-05-13 21:45:00,
2013-05-13 15:00:00,82.3,62.0,29.99,South,172,0.0,-999.0,51,-99.99,,,0.00,weatherlink.com 1.10,2013-05-13 22:00:00,
2013-05-13 15:15:00,82.6,61.0,29.98,South,191,3.0,-999.0,49,-99.99,,,0.00,weatherlink.com 1.10,2013-05-13 22:15:00,
2013-05-13 15:30:00,82.5,62.0,29.98,South,177,0.0,-999.0,50,-99.99,,,0.00,weatherlink.com 1.10,2013-05-13 22:30:00,
2013-05-13 15:45:00,83.2,62.0,29.97,ESE,103,1.0,-999.0,49,-99.99,,,0.00,weatherlink.com 1.10,2013-05-13 22:45:00,
2013-05-13 16:00:00,84.2,62.0,29.96,SSE,157,0.0,-999.0,48,-99.99,,,0.00,weatherlink.com 1.10,2013-05-13 23:00:00,
2013-05-13 16:15:00,84.2,61.0,29.95,SSE,154,1.0,-999.0,46,-99.99,,,0.00,weatherlink.com 1.10,2013-05-13 23:15:00,
2013-05-13 16:30:00,84.5,61.0,29.95,SSE,163,2.0,-999.0,46,-99.99,,,0.00,weatherlink.com 1.10,2013-05-13 23:30:00,
2013-05-13 16:45:00,83.9,62.0,29.95,SSE,150,1.0,-999.0,48,-99.99,,,0.00,weatherlink.com 1.10,2013-05-13 23:45:00,
2013-05-13 17:00:00,83.6,61.0,29.95,SSE,148,0.0,-999.0,47,-99.99,,,0.00,weatherlink.com 1.10,2013-05-14 00:00:00,
2013-05-13 17:15:00,83.0,61.0,29.94,SE,132,0.0,-999.0,48,-99.99,,,0.00,weatherlink.com 1.10,2013-05-14 00:15:00,
2013-05-13 17:30:00,83.2,60.0,29.94,SE,135,0.0,-999.0,46,-99.99,,,0.00,weatherlink.com 1.10,2013-05-14 00:30:00,
2013-05-13 17:45:00,83.0,61.0,29.93,East,82,1.0,-999.0,48,-99.99,,,0.00,weatherlink.com 1.10,2013-05-14 00:45:00,
2013-05-13 18:00:00,81.7,61.0,29.93,SSE,148,0.0,-999.0,49,-99.99,,,0.00,weatherlink.com 1.10,2013-05-14 01:00:00,
2013-05-13 18:15:00,79.6,60.0,29.93,SW,226,0.0,-999.0,51,-99.99,,,0.00,weatherlink.com 1.10,2013-05-14 01:15:00,
2013-05-13 18:30:00,77.3,60.0,29.92,SSE,156,0.0,-999.0,55,-99.99,,,0.00,weatherlink.com 1.10,2013-05-14 01:30:00,
2013-05-13 18:45:00,75.5,59.0,29.92,South,171,1.0,-999.0,56,-99.99,,,0.00,weatherlink.com 1.10,2013-05-14 01:45:00,
2013-05-13 19:00:00,73.9,58.0,29.92,ENE,69,0.0,-999.0,58,-99.99,,,0.00,weatherlink.com 1.10,2013-05-14 02:00:00,
2013-05-13 19:16:00,72.6,58.0,29.91,East,93,0.0,-999.0,60,-99.99,,,0.00,weatherlink.com 1.10,2013-05-14 02:16:00,
2013-05-13 19:31:00,71.2,57.0,29.91,East,92,0.0,-999.0,61,-99.99,,,0.00,weatherlink.com 1.10,2013-05-14 02:31:00,
2013-05-13 19:46:00,69.8,57.0,29.91,NNE,25,0.0,-999.0,64,-99.99,,,0.00,weatherlink.com 1.10,2013-05-14 02:46:00,
2013-05-13 20:01:00,68.3,56.0,29.92,NNE,27,0.0,-999.0,66,-99.99,,,0.00,weatherlink.com 1.10,2013-05-14 03:01:00,
2013-05-13 20:16:00,66.9,56.0,29.92,NE,40,0.0,-999.0,68,-99.99,,,0.00,weatherlink.com 1.10,2013-05-14 03:16:00,
2013-05-13 20:31:00,65.6,56.0,29.92,NE,40,0.0,-999.0,70,-99.99,,,0.00,weatherlink.com 1.10,2013-05-14 03:31:00,
2013-05-13 20:46:00,64.4,55.0,29.92,NE,40,0.0,-999.0,72,-99.99,,,0.00,weatherlink.com 1.10,2013-05-14 03:46:00,
2013-05-13 21:01:00,63.2,55.0,29.92,NE,40,0.0,-999.0,75,-99.99,,,0.00,weatherlink.com 1.10,2013-05-14 04:01:00,
2013-05-13 21:16:00,62.2,55.0,29.93,NE,40,0.0,-999.0,77,-99.99,,,0.00,weatherlink.com 1.10,2013-05-14 04:16:00,
2013-05-13 21:31:00,61.2,55.0,29.93,NE,40,0.0,-999.0,80,-99.99,,,0.00,weatherlink.com 1.10,2013-05-14 04:31:00,
2013-05-13 21:46:00,60.4,55.0,29.93,NE,40,0.0,-999.0,81,-99.99,,,0.00,weatherlink.com 1.10,2013-05-14 04:46:00,
2013-05-13 22:01:00,59.5,54.0,29.93,NE,40,0.0,-999.0,83,-99.99,,,0.00,weatherlink.com 1.10,2013-05-14 05:01:00,
2013-05-13 22:16:00,58.7,54.0,29.93,NE,40,0.0,-999.0,84,-99.99,,,0.00,weatherlink.com 1.10,2013-05-14 05:16:00,
2013-05-13 22:31:00,58.0,54.0,29.93,NE,40,0.0,-999.0,86,-99.99,,,0.00,weatherlink.com 1.10,2013-05-14 05:31:00,
2013-05-13 22:46:00,57.2,53.0,29.93,NE,40,0.0,-999.0,86,-99.99,,,0.00,weatherlink.com 1.10,2013-05-14 05:46:00,
2013-05-13 23:01:00,56.6,53.0,29.93,NE,40,0.0,-999.0,87,-99.99,,,0.00,weatherlink.com 1.10,2013-05-14 06:01:00,
2013-05-13 23:16:00,56.0,53.0,29.93,NE,40,0.0,-999.0,88,-99.99,,,0.00,weatherlink.com 1.10,2013-05-14 06:16:00,
2013-05-13 23:31:00,55.4,52.0,29.93,NE,40,0.0,-999.0,89,-99.99,,,0.00,weatherlink.com 1.10,2013-05-14 06:31:00,
2013-05-13 23:46:00,55.0,52.0,29.92,NE,40,0.0,-999.0,89,-99.99,,,0.00,weatherlink.com 1.10,2013-05-14 06:46:00,